Time;durP1;ratioP1;P1;durP2;ratioP2;P2;SDS_P1;SDS_P2;PMS_P1;PMS_P2;Temp;Humidity;BMP_temperature;BMP_pressure;BME280_temperature;BME280_humidity;BME280_pressure;Samples;Min_cycle;Max_cycle;Signal;HPM_P1;HPM_P2
2023/09/30 00:00:15;;;;;;;1.73;1.30;;;;;;;18.59;nan;61496.63;5051372;28;20167;-63
2023/09/30 00:02:40;;;;;;;1.83;1.20;;;;;;;17.66;nan;61462.84;5051890;28;20175;-63
2023/09/30 00:05:06;;;;;;;1.02;1.00;;;;;;;18.36;nan;61544.13;5051789;28;20163;-63
2023/09/30 00:07:32;;;;;;;1.73;1.23;;;;;;;18.41;nan;61523.91;5051578;28;20206;-64
2023/09/30 00:09:58;;;;;;;2.38;1.20;;;;;;;18.41;nan;61521.31;5054986;28;20539;-63
2023/09/30 00:12:23;;;;;;;1.35;1.10;;;;;;;18.41;nan;61461.81;5055271;28;20665;-63
2023/09/30 00:14:49;;;;;;;1.23;1.10;;;;;;;18.32;nan;61415.44;5055006;28;20240;-63
2023/09/30 00:17:14;;;;;;;1.58;0.93;;;;;;;18.33;nan;61436.69;5055197;28;20174;-64
2023/09/30 00:19:40;;;;;;;0.90;0.90;;;;;;;18.34;nan;61445.59;5055586;28;20646;-64
2023/09/30 00:22:05;;;;;;;1.05;0.95;;;;;;;18.05;nan;61364.81;5055270;28;20162;-64
2023/09/30 00:24:31;;;;;;;2.28;1.27;;;;;;;18.14;nan;61395.09;5055096;28;20286;-62
2023/09/30 00:26:56;;;;;;;1.05;1.00;;;;;;;18.42;nan;61504.34;5055430;28;20258;-63
2023/09/30 00:29:22;;;;;;;1.38;1.27;;;;;;;18.49;nan;61442.44;5055151;28;20240;-63
2023/09/30 00:31:47;;;;;;;2.20;0.95;;;;;;;18.32;nan;61399.91;5054662;28;20603;-63
2023/09/30 00:34:13;;;;;;;1.55;1.20;;;;;;;18.57;nan;61445.19;5054887;28;20605;-63
2023/09/30 00:36:38;;;;;;;1.23;1.13;;;;;;;18.50;nan;61611.72;5055224;28;20259;-65
2023/09/30 00:39:04;;;;;;;1.30;1.20;;;;;;;18.42;nan;61711.31;5054341;28;20179;-63
2023/09/30 00:41:29;;;;;;;1.00;1.00;;;;;;;18.49;nan;61739.97;5054704;28;20203;-63
2023/09/30 00:43:54;;;;;;;1.15;1.05;;;;;;;18.46;nan;61466.91;5054871;28;20174;-64
2023/09/30 00:46:29;;;;;;;1.88;1.27;;;;;;;18.40;nan;61434.28;5054677;28;20173;-62
2023/09/30 00:48:56;;;;;;;2.63;1.65;;;;;;;18.38;nan;61463.03;5054635;28;20221;-63
2023/09/30 00:51:22;;;;;;;1.92;1.55;;;;;;;18.08;nan;61375.38;5054555;28;20633;-64
2023/09/30 00:53:50;;;;;;;2.85;1.73;;;;;;;18.12;nan;61333.38;5054423;28;20167;-64
2023/09/30 00:56:18;;;;;;;1.20;1.10;;;;;;;18.18;nan;61476.63;5054201;28;20214;-64
2023/09/30 00:58:45;;;;;;;1.48;1.20;;;;;;;18.29;nan;61463.78;5054460;28;20617;-64
2023/09/30 01:01:10;;;;;;;1.23;1.13;;;;;;;18.26;nan;61411.25;5054649;28;20709;-62
2023/09/30 01:03:37;;;;;;;1.77;1.40;;;;;;;18.15;nan;61522.34;5054150;28;20266;-64
2023/09/30 01:06:02;;;;;;;2.00;1.40;;;;;;;18.28;nan;61423.84;5054550;28;20182;-63
2023/09/30 01:08:28;;;;;;;2.25;1.83;;;;;;;18.35;nan;61446.72;5054262;28;20206;-63
2023/09/30 01:10:55;;;;;;;1.25;1.15;;;;;;;17.60;nan;61477.28;5054249;28;20178;-64
2023/09/30 01:13:20;;;;;;;1.35;1.13;;;;;;;18.36;nan;61451.00;5053948;28;20175;-63
2023/09/30 01:15:47;;;;;;;1.40;1.27;;;;;;;18.27;nan;61448.56;5054558;28;20197;-63
2023/09/30 01:18:12;;;;;;;1.15;1.05;;;;;;;18.23;nan;61428.53;5054041;28;20335;-64
2023/09/30 01:20:38;;;;;;;1.23;1.13;;;;;;;17.99;nan;61378.69;5053524;28;20287;-63
2023/09/30 01:23:03;;;;;;;1.45;1.20;;;;;;;17.96;nan;61442.53;5053553;28;20170;-64
2023/09/30 01:25:30;;;;;;;1.33;1.23;;;;;;;18.17;nan;61432.09;5054163;28;20175;-64
2023/09/30 01:27:55;;;;;;;1.48;1.15;;;;;;;17.96;nan;61408.91;5053810;28;20645;-64
2023/09/30 01:30:23;;;;;;;1.02;0.93;;;;;;;18.08;nan;61406.41;5053960;28;20178;-62
2023/09/30 01:32:48;;;;;;;1.88;1.45;;;;;;;17.88;nan;61613.84;5054466;28;20179;-64
2023/09/30 01:35:14;;;;;;;1.95;1.35;;;;;;;17.85;nan;61370.63;5053407;28;20178;-64
2023/09/30 01:37:40;;;;;;;1.15;1.00;;;;;;;18.02;nan;61415.13;5053773;28;20170;-64
2023/09/30 01:40:11;;;;;;;1.35;1.25;;;;;;;17.95;nan;61458.91;5053666;28;20175;-65
2023/09/30 01:42:37;;;;;;;1.20;1.10;;;;;;;18.01;nan;61383.56;5053348;28;20151;-63
2023/09/30 01:45:02;;;;;;;2.38;1.27;;;;;;;17.96;nan;61667.41;5053825;28;20182;-63
2023/09/30 01:47:28;;;;;;;1.35;1.25;;;;;;;17.75;nan;61328.34;5053756;28;20303;-63
2023/09/30 01:49:53;;;;;;;0.98;0.98;;;;;;;17.73;nan;61369.41;5052987;28;20557;-63
2023/09/30 01:52:19;;;;;;;1.25;1.15;;;;;;;17.70;nan;61508.16;5053624;28;20246;-63
2023/09/30 01:54:44;;;;;;;1.73;1.38;;;;;;;17.71;nan;61502.09;5053737;28;20178;-64
2023/09/30 01:57:10;;;;;;;1.30;1.10;;;;;;;17.83;nan;61357.47;5053366;28;20218;-63
2023/09/30 01:59:35;;;;;;;2.00;1.40;;;;;;;17.57;nan;61435.09;5053144;28;20171;-65
2023/09/30 02:02:01;;;;;;;1.20;1.20;;;;;;;17.60;nan;61477.28;5053017;28;20543;-64
2023/09/30 02:04:27;;;;;;;2.75;1.55;;;;;;;17.73;nan;61346.72;5053131;28;20183;-63
2023/09/30 02:06:52;;;;;;;1.50;1.40;;;;;;;17.51;nan;61441.25;5052991;28;20530;-63
2023/09/30 02:09:17;;;;;;;1.83;1.40;;;;;;;17.63;nan;61325.66;5053106;28;20167;-63
2023/09/30 02:11:43;;;;;;;2.00;1.23;;;;;;;17.44;nan;61267.44;5053292;28;20224;-63
2023/09/30 02:14:11;;;;;;;1.10;1.08;;;;;;;17.41;nan;61409.28;5052765;28;20548;-63
2023/09/30 02:16:38;;;;;;;1.42;1.27;;;;;;;17.53;nan;61300.88;5051518;28;20614;-64
2023/09/30 02:19:03;;;;;;;1.33;1.23;;;;;;;17.30;nan;61417.47;5053055;28;20167;-64
2023/09/30 02:21:28;;;;;;;2.22;1.50;;;;;;;17.32;nan;61541.13;5052982;28;20190;-64
2023/09/30 02:23:54;;;;;;;1.27;1.17;;;;;;;17.28;nan;61268.03;5053060;28;20174;-64
2023/09/30 02:26:21;;;;;;;1.40;1.27;;;;;;;17.24;nan;61271.28;5053607;28;20222;-62
2023/09/30 02:28:47;;;;;;;1.42;1.33;;;;;;;16.97;nan;61307.91;5052445;28;20222;-64
2023/09/30 02:31:12;;;;;;;1.33;1.23;;;;;;;17.11;nan;61303.06;5052161;28;20265;-63
2023/09/30 02:33:38;;;;;;;1.77;1.38;;;;;;;16.89;nan;61412.38;5052582;28;20553;-64
2023/09/30 02:36:07;;;;;;;1.67;1.52;;;;;;;16.82;nan;61252.81;5052388;28;20171;-63
2023/09/30 02:38:32;;;;;;;1.42;1.33;;;;;;;16.98;nan;61303.84;5052256;28;20213;-63
2023/09/30 02:40:58;;;;;;;2.25;1.52;;;;;;;17.05;nan;61399.53;5053295;28;20163;-64
2023/09/30 02:43:23;;;;;;;1.52;1.40;;;;;;;16.93;nan;61520.69;5052933;28;20239;-63
2023/09/30 02:45:50;;;;;;;1.52;1.35;;;;;;;16.72;nan;61367.94;5052795;28;20249;-62
2023/09/30 02:48:15;;;;;;;2.22;1.30;;;;;;;16.68;nan;61245.31;5052066;28;20585;-63
2023/09/30 02:50:46;;;;;;;2.33;1.88;;;;;;;16.83;nan;61524.31;5052229;28;20171;-63
2023/09/30 02:53:13;;;;;;;3.25;1.35;;;;;;;16.75;nan;61262.97;5052519;28;20217;-63
2023/09/30 02:55:41;;;;;;;2.42;1.60;;;;;;;16.72;nan;61218.31;5051924;28;20198;-63
2023/09/30 02:58:10;;;;;;;1.83;1.33;;;;;;;16.64;nan;61256.28;5052206;28;20174;-63
2023/09/30 03:00:37;;;;;;;4.35;1.30;;;;;;;16.65;nan;61437.94;5052191;28;20178;-62
2023/09/30 03:03:03;;;;;;;1.70;1.33;;;;;;;16.45;nan;61229.66;5052251;28;20178;-63
2023/09/30 03:05:32;;;;;;;2.25;1.58;;;;;;;16.40;nan;61372.97;5052204;28;20236;-62
2023/09/30 03:07:57;;;;;;;1.83;1.52;;;;;;;16.34;nan;61212.63;5051893;28;20293;-63
2023/09/30 03:10:26;;;;;;;1.83;1.73;;;;;;;16.30;nan;61362.81;5051787;28;20316;-63
2023/09/30 03:12:56;;;;;;;1.30;1.20;;;;;;;16.28;nan;61329.59;5052475;28;20224;-63
2023/09/30 03:15:22;;;;;;;1.80;1.30;;;;;;;16.32;nan;61349.03;5052117;28;20264;-63
2023/09/30 03:17:48;;;;;;;1.33;1.23;;;;;;;16.26;nan;61151.50;5051999;28;20167;-63
2023/09/30 03:20:17;;;;;;;2.42;1.60;;;;;;;16.39;nan;61184.19;5052007;28;20170;-64
2023/09/30 03:22:46;;;;;;;2.20;1.63;;;;;;;16.39;nan;61253.81;5045186;28;20179;-64
2023/09/30 03:25:15;;;;;;;1.33;1.23;;;;;;;16.34;nan;61248.16;5040972;28;20659;-63
2023/09/30 03:27:40;;;;;;;1.70;1.50;;;;;;;16.27;nan;61302.72;5040527;28;20234;-63
2023/09/30 03:30:08;;;;;;;2.47;1.45;;;;;;;16.20;nan;61302.50;5032309;28;20183;-62
2023/09/30 03:32:36;;;;;;;1.38;1.27;;;;;;;15.50;nan;61360.44;5048847;28;20558;-64
2023/09/30 03:35:02;;;;;;;1.60;1.40;;;;;;;16.20;nan;61171.06;5051918;28;20171;-63
2023/09/30 03:37:28;;;;;;;3.25;1.70;;;;;;;16.16;nan;61196.91;5050467;28;20193;-64
2023/09/30 03:39:54;;;;;;;1.42;1.33;;;;;;;16.11;nan;61150.59;5051999;28;20296;-63
2023/09/30 03:42:20;;;;;;;3.05;1.25;;;;;;;15.90;nan;61153.28;5052520;28;20166;-64
2023/09/30 03:44:46;;;;;;;3.58;1.77;;;;;;;15.93;nan;61191.56;5055927;28;20197;-62
2023/09/30 03:47:11;;;;;;;2.58;1.75;;;;;;;15.73;nan;61138.66;5056477;28;20167;-63
2023/09/30 03:49:38;;;;;;;2.60;1.48;;;;;;;15.63;nan;61277.31;5055526;28;20170;-65
2023/09/30 03:52:04;;;;;;;1.23;1.13;;;;;;;15.74;nan;61385.03;5056138;28;20213;-63
2023/09/30 03:54:29;;;;;;;1.98;1.40;;;;;;;15.73;nan;61412.25;5055982;28;20159;-64
2023/09/30 03:56:55;;;;;;;1.27;1.17;;;;;;;15.73;nan;61134.09;5055866;28;20314;-63
2023/09/30 03:59:20;;;;;;;5.15;1.77;;;;;;;15.61;nan;61127.72;5056020;28;20174;-62
2023/09/30 04:01:47;;;;;;;1.77;1.35;;;;;;;15.49;nan;61070.97;5055851;28;20258;-64
2023/09/30 04:04:12;;;;;;;1.40;1.30;;;;;;;15.51;nan;61124.72;5055334;28;20715;-64
2023/09/30 04:06:38;;;;;;;1.42;1.33;;;;;;;15.14;nan;61188.50;5055516;28;20262;-63
2023/09/30 04:09:09;;;;;;;1.27;1.17;;;;;;;15.60;nan;61108.56;5055437;28;20700;-64
2023/09/30 04:11:37;;;;;;;2.17;1.70;;;;;;;15.48;nan;61208.88;5055746;28;20207;-63
2023/09/30 04:14:05;;;;;;;1.38;1.25;;;;;;;15.45;nan;61344.47;5055232;28;20170;-63
2023/09/30 04:16:31;;;;;;;1.45;1.35;;;;;;;15.44;nan;61096.78;5055257;28;20173;-62
2023/09/30 04:18:57;;;;;;;1.90;1.20;;;;;;;15.55;nan;61232.22;5055124;28;20174;-63
2023/09/30 04:21:22;;;;;;;1.10;1.10;;;;;;;15.31;nan;61112.44;5055065;28;20633;-64
2023/09/30 04:23:49;;;;;;;1.27;1.23;;;;;;;15.59;nan;61146.63;5055118;28;20167;-62
2023/09/30 04:26:15;;;;;;;2.45;1.95;;;;;;;15.41;nan;61015.63;5055681;28;20575;-64
2023/09/30 04:28:40;;;;;;;1.65;1.42;;;;;;;15.68;nan;61172.22;5055186;28;20232;-63
2023/09/30 04:31:07;;;;;;;2.40;1.27;;;;;;;15.65;nan;61119.91;5055177;28;20547;-63
2023/09/30 04:33:34;;;;;;;1.38;1.27;;;;;;;15.68;nan;61251.50;5054911;28;20189;-63
2023/09/30 04:36:00;;;;;;;1.55;1.45;;;;;;;15.65;nan;61137.94;5053347;28;20568;-64
2023/09/30 04:38:25;;;;;;;1.80;1.50;;;;;;;15.53;nan;61047.19;5054650;28;20175;-63
2023/09/30 04:40:51;;;;;;;1.45;1.35;;;;;;;15.52;nan;61115.56;5054691;28;20167;-63
2023/09/30 04:43:17;;;;;;;1.48;1.38;;;;;;;15.35;nan;61086.63;5054231;28;20178;-63
2023/09/30 04:45:43;;;;;;;1.33;1.23;;;;;;;15.71;nan;61245.16;5054535;28;20167;-63
2023/09/30 04:48:08;;;;;;;1.98;1.52;;;;;;;15.54;nan;61220.78;5052764;28;20202;-63
2023/09/30 04:50:34;;;;;;;1.73;1.63;;;;;;;15.80;nan;61139.41;5054607;28;20174;-63
2023/09/30 04:52:59;;;;;;;1.15;1.15;;;;;;;15.65;nan;61091.59;5054728;28;20266;-63
2023/09/30 04:55:26;;;;;;;1.15;1.10;;;;;;;15.90;nan;61158.41;5053671;28;20185;-64
2023/09/30 04:57:52;;;;;;;1.50;1.40;;;;;;;15.89;nan;61291.25;5035523;28;20255;-63
2023/09/30 05:00:25;;;;;;;1.38;1.27;;;;;;;15.96;nan;61272.81;5051070;28;20183;-63
2023/09/30 05:02:52;;;;;;;1.40;1.30;;;;;;;15.02;nan;61188.94;5034484;28;20679;-64
2023/09/30 05:05:18;;;;;;;2.03;1.48;;;;;;;16.17;nan;61198.63;5044154;28;20183;-63
2023/09/30 05:07:44;;;;;;;1.63;1.40;;;;;;;16.14;nan;61199.81;5054515;28;20645;-63
2023/09/30 05:10:13;;;;;;;3.33;2.58;;;;;;;16.36;nan;61234.97;5054175;28;20177;-62
2023/09/30 05:12:38;;;;;;;1.88;1.67;;;;;;;16.45;nan;61221.34;5054055;28;20236;-63
2023/09/30 05:15:06;;;;;;;2.40;1.45;;;;;;;16.58;nan;61244.34;5054795;28;20170;-63
2023/09/30 05:17:31;;;;;;;5.38;2.20;;;;;;;16.51;nan;61370.50;5054261;28;20218;-64
2023/09/30 05:19:57;;;;;;;1.40;1.17;;;;;;;16.69;nan;61372.28;5053724;28;20744;-64
2023/09/30 05:22:24;;;;;;;1.52;1.42;;;;;;;16.63;nan;61348.00;5045346;28;20650;-64
2023/09/30 05:24:56;;;;;;;2.15;1.55;;;;;;;16.91;nan;61252.09;5036041;28;20572;-63
2023/09/30 05:27:21;;;;;;;1.98;1.48;;;;;;;16.81;nan;61302.72;5047181;28;20203;-64
2023/09/30 05:29:46;;;;;;;1.40;1.30;;;;;;;17.04;nan;61285.41;5034036;28;20302;-64
2023/09/30 05:32:14;;;;;;;1.20;1.10;;;;;;;17.18;nan;61303.22;5045341;28;20197;-64
2023/09/30 05:34:39;;;;;;;1.83;1.58;;;;;;;17.17;nan;61309.84;5053790;28;20177;-65
2023/09/30 05:37:05;;;;;;;3.13;1.73;;;;;;;17.26;nan;61330.31;5053881;28;20159;-64
2023/09/30 05:39:31;;;;;;;1.58;1.35;;;;;;;17.44;nan;61489.56;5052317;28;20179;-64
2023/09/30 05:41:59;;;;;;;1.40;1.30;;;;;;;17.43;nan;61318.53;5053835;28;20520;-62
2023/09/30 05:44:27;;;;;;;5.03;1.60;;;;;;;17.58;nan;61484.75;5053746;28;20166;-64
2023/09/30 05:46:53;;;;;;;4.93;2.20;;;;;;;18.04;nan;61412.22;5053537;28;20171;-64
2023/09/30 05:49:19;;;;;;;1.23;1.13;;;;;;;17.88;nan;61373.47;5053256;28;20210;-64
2023/09/30 05:51:44;;;;;;;3.25;1.52;;;;;;;18.09;nan;61389.44;5053452;28;20251;-63
2023/09/30 05:54:09;;;;;;;1.65;1.45;;;;;;;18.02;nan;61534.63;5053566;28;20262;-66
2023/09/30 05:56:37;;;;;;;1.77;1.27;;;;;;;18.26;nan;61413.84;5053028;28;20231;-64
2023/09/30 05:59:03;;;;;;;2.05;1.80;;;;;;;18.56;nan;61454.41;5053673;28;20206;-65
2023/09/30 06:01:28;;;;;;;2.00;1.80;;;;;;;18.84;nan;61489.25;5052720;28;20206;-64
2023/09/30 06:03:54;;;;;;;1.05;1.00;;;;;;;18.73;nan;61465.88;5053574;28;20202;-63
2023/09/30 06:06:20;;;;;;;2.42;1.27;;;;;;;19.10;nan;61452.81;5051985;28;20177;-65
2023/09/30 06:08:45;;;;;;;2.35;1.50;;;;;;;19.26;nan;61590.63;5053267;28;20191;-65
2023/09/30 06:11:24;;;;;;;1.67;1.30;;;;;;;19.44;nan;61485.53;5052985;28;20163;-64
2023/09/30 06:13:52;;;;;;;1.83;1.65;;;;;;;19.77;nan;61582.50;5053436;28;20174;-65
2023/09/30 06:16:18;;;;;;;1.83;1.40;;;;;;;19.66;nan;61712.59;5053457;28;20159;-65
2023/09/30 06:18:45;;;;;;;2.25;1.83;;;;;;;20.00;nan;61626.13;5052805;28;20182;-65
2023/09/30 06:21:14;;;;;;;2.50;1.40;;;;;;;20.18;nan;61740.50;5053198;28;20170;-66
2023/09/30 06:23:43;;;;;;;1.95;1.23;;;;;;;20.25;nan;61688.75;5052371;28;20572;-64
2023/09/30 06:26:09;;;;;;;1.23;1.10;;;;;;;20.24;nan;61773.25;5052712;28;20312;-64
2023/09/30 06:28:40;;;;;;;1.30;1.08;;;;;;;20.59;nan;61723.63;5052910;28;20319;-64
2023/09/30 06:31:12;;;;;;;2.72;2.50;;;;;;;20.71;nan;61779.38;5053340;28;20159;-67
2023/09/30 06:33:39;;;;;;;1.20;1.10;;;;;;;20.70;nan;61839.97;5052801;28;20648;-63
2023/09/30 06:36:08;;;;;;;1.60;1.33;;;;;;;20.99;nan;61643.75;5052583;28;20265;-64
2023/09/30 06:38:34;;;;;;;5.53;1.95;;;;;;;20.91;nan;61748.97;5052817;28;20702;-65
2023/09/30 06:40:59;;;;;;;2.58;1.38;;;;;;;21.10;nan;61734.72;5052452;28;20214;-64
2023/09/30 06:43:25;;;;;;;3.40;1.65;;;;;;;21.10;nan;61864.66;5052194;28;20554;-65
2023/09/30 06:45:54;;;;;;;6.68;1.25;;;;;;;21.50;nan;61841.41;5052203;28;20242;-65
2023/09/30 06:48:19;;;;;;;1.88;1.42;;;;;;;21.69;nan;61846.81;5052343;28;20578;-67
2023/09/30 06:50:48;;;;;;;2.78;1.80;;;;;;;21.68;nan;61791.63;5052966;28;20178;-66
2023/09/30 06:53:14;;;;;;;2.45;1.92;;;;;;;21.81;nan;61926.03;5052332;28;20179;-63
2023/09/30 06:55:39;;;;;;;2.38;1.50;;;;;;;21.69;nan;61849.97;5050250;28;20187;-63
2023/09/30 06:58:07;;;;;;;3.22;1.75;;;;;;;21.69;nan;61795.34;5052605;28;20175;-65
2023/09/30 07:00:34;;;;;;;1.48;1.23;;;;;;;21.85;nan;61862.94;5050714;28;20191;-65
2023/09/30 07:03:01;;;;;;;2.15;2.00;;;;;;;21.90;nan;61826.44;5051643;28;20194;-64
2023/09/30 07:05:28;;;;;;;3.60;1.52;;;;;;;21.96;nan;61787.00;5052261;28;20163;-66
2023/09/30 07:07:53;;;;;;;2.13;1.30;;;;;;;22.20;nan;61842.28;5050702;28;20687;-64
2023/09/30 07:10:19;;;;;;;1.75;1.40;;;;;;;22.24;nan;61859.31;5051940;28;20236;-67
2023/09/30 07:12:44;;;;;;;2.55;1.50;;;;;;;22.37;nan;62100.59;5052434;28;20313;-67
2023/09/30 07:15:10;;;;;;;2.00;1.80;;;;;;;22.80;nan;61964.63;5051972;28;20228;-64
2023/09/30 07:17:35;;;;;;;3.72;2.30;;;;;;;22.95;nan;61975.91;5051740;28;20634;-66
2023/09/30 07:20:02;;;;;;;1.48;1.23;;;;;;;22.77;nan;61958.03;5051662;28;20198;-64
2023/09/30 07:22:27;;;;;;;1.63;1.30;;;;;;;22.93;nan;62001.72;5051797;28;20740;-64
2023/09/30 07:24:53;;;;;;;1.55;1.45;;;;;;;22.62;nan;62030.09;5051803;28;20350;-66
2023/09/30 07:27:18;;;;;;;3.60;2.33;;;;;;;23.01;nan;62003.56;5052125;28;20171;-63
2023/09/30 07:29:44;;;;;;;1.17;1.08;;;;;;;23.18;nan;62142.28;5052129;28;20166;-64
2023/09/30 07:32:09;;;;;;;2.50;1.58;;;;;;;23.10;nan;62099.28;5051078;28;20269;-64
2023/09/30 07:34:35;;;;;;;1.65;1.42;;;;;;;23.55;nan;62285.66;5051929;28;20171;-65
2023/09/30 07:37:00;;;;;;;1.70;1.58;;;;;;;23.60;nan;62062.34;5044695;28;20183;-64
2023/09/30 07:39:26;;;;;;;1.10;1.05;;;;;;;23.53;nan;62015.25;5040454;28;20186;-65
2023/09/30 07:41:51;;;;;;;1.92;1.60;;;;;;;23.70;nan;62195.78;5041000;28;20187;-64
2023/09/30 07:44:17;;;;;;;2.55;2.25;;;;;;;23.86;nan;62111.69;5033344;28;20213;-65
2023/09/30 07:46:43;;;;;;;1.30;1.20;;;;;;;23.59;nan;62175.41;5047418;28;20179;-64
2023/09/30 07:49:11;;;;;;;1.45;1.33;;;;;;;24.03;nan;62123.22;5031864;28;20202;-65
2023/09/30 07:51:39;;;;;;;1.77;1.23;;;;;;;24.05;nan;62206.41;5041845;28;20265;-64
2023/09/30 07:54:05;;;;;;;2.28;1.67;;;;;;;24.22;nan;62118.75;5051443;28;20615;-65
2023/09/30 07:56:30;;;;;;;1.20;1.10;;;;;;;24.27;nan;62242.00;5051574;28;20297;-65
2023/09/30 07:58:55;;;;;;;2.92;1.33;;;;;;;24.34;nan;62158.53;5051451;28;20271;-64
2023/09/30 08:01:21;;;;;;;2.05;1.48;;;;;;;24.60;nan;62373.16;5051845;28;20177;-64
2023/09/30 08:03:47;;;;;;;1.30;1.15;;;;;;;24.47;nan;62403.28;5051747;28;20197;-63
2023/09/30 08:06:12;;;;;;;2.78;1.77;;;;;;;24.61;nan;62270.31;5051762;28;20166;-64
2023/09/30 08:08:38;;;;;;;1.77;1.30;;;;;;;24.58;nan;62196.34;5051745;28;20642;-64
2023/09/30 08:11:04;;;;;;;2.78;1.45;;;;;;;24.69;nan;62218.78;5049727;28;20586;-64
2023/09/30 08:13:32;;;;;;;2.50;1.55;;;;;;;24.84;nan;62327.38;5051547;28;20178;-64
2023/09/30 08:15:57;;;;;;;1.65;1.48;;;;;;;25.00;nan;62204.47;5051793;28;20239;-64
2023/09/30 08:18:23;;;;;;;1.73;1.40;;;;;;;25.01;nan;62286.09;5052107;28;20598;-65
2023/09/30 08:20:49;;;;;;;5.22;3.15;;;;;;;24.83;nan;62354.44;5051236;28;20749;-64
2023/09/30 08:23:14;;;;;;;2.28;1.70;;;;;;;25.01;nan;62331.13;5051413;28;20603;-64
2023/09/30 08:25:40;;;;;;;1.80;1.40;;;;;;;25.16;nan;62328.78;5051295;28;20254;-64
2023/09/30 08:28:05;;;;;;;2.00;1.40;;;;;;;25.02;nan;62331.69;5051625;28;20195;-64
2023/09/30 08:30:33;;;;;;;2.30;1.48;;;;;;;22.55;nan;62037.75;5054067;28;20175;-64
2023/09/30 08:32:59;;;;;;;2.85;1.60;;;;;;;25.33;nan;62264.47;5054135;28;20194;-63
2023/09/30 08:35:24;;;;;;;3.58;2.38;;;;;;;25.38;nan;62456.53;5055100;28;20170;-64
2023/09/30 08:37:50;;;;;;;2.20;1.83;;;;;;;25.65;nan;62450.22;5054532;28;20562;-64
2023/09/30 08:40:20;;;;;;;1.40;1.10;;;;;;;25.72;nan;62356.09;5055415;28;20159;-64
2023/09/30 08:42:51;;;;;;;1.83;1.35;;;;;;;25.69;nan;62328.56;5054987;28;20232;-63
2023/09/30 08:45:18;;;;;;;1.48;1.33;;;;;;;25.76;nan;62331.28;5054480;28;20162;-65
2023/09/30 08:47:44;;;;;;;1.98;1.42;;;;;;;26.06;nan;62457.22;5054638;28;20681;-64
2023/09/30 08:50:10;;;;;;;1.48;1.17;;;;;;;25.99;nan;62441.34;5054832;28;20163;-63
2023/09/30 08:52:39;;;;;;;1.27;1.17;;;;;;;26.09;nan;62470.56;5054146;28;20170;-64
2023/09/30 08:55:06;;;;;;;2.20;1.20;;;;;;;26.30;nan;62385.13;5054954;28;20702;-65
2023/09/30 08:57:33;;;;;;;1.95;1.35;;;;;;;26.18;nan;62473.00;5054594;28;20619;-65
2023/09/30 08:59:59;;;;;;;1.42;1.27;;;;;;;26.40;nan;62432.66;5054992;28;20257;-65
2023/09/30 09:02:24;;;;;;;3.50;1.83;;;;;;;26.69;nan;62444.22;5054933;28;20615;-65
2023/09/30 09:04:50;;;;;;;1.85;1.40;;;;;;;26.67;nan;62397.38;5054366;28;20190;-64
2023/09/30 09:07:16;;;;;;;1.52;1.30;;;;;;;26.71;nan;62420.31;5054886;28;20174;-65
2023/09/30 09:10:09;;;;;;;1.42;1.33;;;;;;;27.02;nan;62549.59;5054136;28;20197;-65
2023/09/30 09:12:38;;;;;;;2.22;1.30;;;;;;;26.72;nan;62424.06;5054365;28;20253;-65
2023/09/30 09:15:09;;;;;;;1.38;1.17;;;;;;;26.76;nan;62492.16;5053996;28;20190;-64
2023/09/30 09:17:44;;;;;;;1.92;1.40;;;;;;;26.41;nan;62367.69;5054425;28;20636;-65
2023/09/30 09:20:25;;;;;;;2.40;1.33;;;;;;;26.75;nan;62561.81;5054084;28;20163;-66
2023/09/30 09:22:55;;;;;;;1.75;1.13;;;;;;;26.64;nan;62428.59;5053970;28;20173;-64
2023/09/30 09:25:24;;;;;;;1.33;1.13;;;;;;;26.83;nan;62494.91;5054184;28;20171;-63
2023/09/30 09:27:53;;;;;;;8.63;1.90;;;;;;;26.79;nan;62699.56;5054031;28;20195;-63
2023/09/30 09:30:26;;;;;;;1.67;1.20;;;;;;;27.22;nan;62520.56;5053716;28;20230;-63
2023/09/30 09:33:05;;;;;;;1.50;1.27;;;;;;;27.02;nan;62610.53;5054492;28;20178;-64
2023/09/30 09:35:33;;;;;;;2.22;1.30;;;;;;;27.09;nan;62539.84;5054148;28;20182;-63
2023/09/30 09:38:04;;;;;;;2.17;1.38;;;;;;;27.22;nan;62520.00;5053917;28;20186;-64
2023/09/30 09:40:32;;;;;;;2.22;1.63;;;;;;;27.16;nan;62505.25;5053369;28;20201;-63
2023/09/30 09:42:59;;;;;;;1.55;1.13;;;;;;;27.05;nan;62639.63;5053858;28;20155;-64
2023/09/30 09:45:25;;;;;;;2.00;1.23;;;;;;;;;;5053664;28;20622;-63
2023/09/30 09:47:52;;;;;;;1.58;1.10;;;;;;;27.70;nan;62589.53;5053765;28;20689;-64
2023/09/30 09:50:20;;;;;;;1.52;1.20;;;;;;;27.70;nan;62713.00;5053177;28;20568;-63
2023/09/30 09:52:48;;;;;;;1.15;0.95;;;;;;;27.71;nan;62691.06;5053228;28;20239;-64
2023/09/30 09:55:16;;;;;;;2.47;1.40;;;;;;;27.81;nan;62605.31;5053598;28;20178;-64
2023/09/30 09:57:43;;;;;;;1.58;1.42;;;;;;;27.73;nan;62561.44;5053385;28;20222;-64
2023/09/30 10:00:14;;;;;;;2.05;1.30;;;;;;;26.08;nan;62483.09;5053653;28;20171;-64
2023/09/30 10:02:40;;;;;;;1.65;1.35;;;;;;;27.58;nan;62539.59;5053217;28;20190;-64
2023/09/30 10:05:07;;;;;;;1.10;1.00;;;;;;;27.88;nan;62600.19;5053632;28;20213;-64
2023/09/30 10:07:41;;;;;;;1.20;1.10;;;;;;;27.89;nan;62667.00;5054095;28;20197;-65
2023/09/30 10:10:15;;;;;;;1.30;1.13;;;;;;;27.89;nan;62653.31;5052994;28;20178;-65
2023/09/30 10:12:41;;;;;;;1.20;1.10;;;;;;;28.02;nan;62647.75;5052866;28;20548;-65
2023/09/30 10:15:27;;;;;;;1.63;1.35;;;;;;;28.15;nan;62738.31;5053177;28;20177;-66
2023/09/30 10:18:07;;;;;;;2.38;1.30;;;;;;;27.99;nan;62730.47;5052694;28;20191;-65
2023/09/30 10:20:34;;;;;;;1.92;1.40;;;;;;;28.01;nan;62766.91;5053433;28;20170;-63
2023/09/30 10:23:19;;;;;;;2.38;1.30;;;;;;;28.24;nan;62753.31;5052630;28;20660;-65
2023/09/30 10:25:47;;;;;;;1.30;1.10;;;;;;;28.23;nan;62691.69;5053603;28;20186;-64
2023/09/30 10:28:37;;;;;;;2.47;1.40;;;;;;;28.26;nan;62739.81;5052348;28;20703;-66
2023/09/30 10:31:20;;;;;;;2.00;1.52;;;;;;;28.22;nan;62735.25;5052607;28;20693;-65
2023/09/30 10:34:01;;;;;;;1.20;1.10;;;;;;;28.32;nan;62741.44;5052441;28;20228;-64
2023/09/30 10:36:35;;;;;;;1.30;1.13;;;;;;;28.42;nan;62724.56;5052287;28;20178;-65
2023/09/30 10:39:02;;;;;;;1.42;1.17;;;;;;;28.63;nan;62823.75;5052793;28;20161;-64
2023/09/30 10:41:39;;;;;;;1.90;1.20;;;;;;;28.85;nan;62835.88;5052082;28;20173;-64
2023/09/30 10:44:25;;;;;;;1.25;1.13;;;;;;;28.85;nan;62809.56;5052259;28;20170;-64
2023/09/30 10:46:54;;;;;;;1.13;1.02;;;;;;;28.89;nan;62738.41;5052053;28;20184;-65
2023/09/30 10:49:22;;;;;;;1.20;1.10;;;;;;;29.03;nan;62853.91;5052611;28;20201;-64
2023/09/30 10:51:52;;;;;;;1.88;1.30;;;;;;;28.97;nan;62781.22;5052240;28;20178;-65
2023/09/30 10:54:28;;;;;;;3.08;1.48;;;;;;;28.91;nan;62919.66;5052345;28;20173;-65
2023/09/30 10:56:55;;;;;;;2.05;1.55;;;;;;;28.97;nan;62768.63;5052223;28;20327;-64
2023/09/30 10:59:22;;;;;;;2.05;1.45;;;;;;;28.92;nan;62772.84;5052257;28;20707;-63
2023/09/30 11:01:49;;;;;;;1.80;1.10;;;;;;;28.79;nan;62766.41;5052094;28;20175;-64
2023/09/30 11:04:15;;;;;;;1.60;1.17;;;;;;;28.76;nan;62723.50;5052393;28;20173;-64
2023/09/30 11:06:42;;;;;;;3.42;1.42;;;;;;;28.85;nan;62760.16;5051997;28;20639;-64
2023/09/30 11:09:13;;;;;;;2.83;1.42;;;;;;;28.93;nan;62781.91;5052179;28;20206;-64
2023/09/30 11:11:48;;;;;;;2.42;1.48;;;;;;;28.92;nan;62809.69;5052205;28;20220;-65
2023/09/30 11:14:16;;;;;;;1.23;1.13;;;;;;;28.97;nan;62854.91;5051955;28;20285;-67
2023/09/30 11:16:43;;;;;;;1.67;1.23;;;;;;;28.91;nan;62887.50;5052184;28;20166;-65
2023/09/30 11:19:09;;;;;;;2.25;1.33;;;;;;;29.15;nan;62882.91;5050711;28;20281;-63
2023/09/30 11:21:35;;;;;;;1.50;1.35;;;;;;;29.06;nan;62788.91;5051810;28;20202;-63
2023/09/30 11:24:01;;;;;;;2.13;1.60;;;;;;;29.09;nan;62878.63;5052334;28;20183;-66
2023/09/30 11:26:33;;;;;;;2.42;1.42;;;;;;;28.99;nan;62797.22;5051406;28;20166;-64
2023/09/30 11:29:13;;;;;;;1.83;1.30;;;;;;;28.81;nan;62813.44;5052029;28;20251;-65
2023/09/30 11:31:39;;;;;;;1.92;1.27;;;;;;;28.76;nan;62744.00;5052433;28;20759;-64
2023/09/30 11:34:06;;;;;;;1.67;1.13;;;;;;;28.90;nan;62802.16;5052453;28;20177;-63
2023/09/30 11:36:34;;;;;;;1.40;1.10;;;;;;;28.96;nan;62783.28;5052063;28;20677;-63
2023/09/30 11:39:03;;;;;;;1.85;1.10;;;;;;;28.98;nan;62879.75;5051301;28;20575;-64
2023/09/30 11:41:39;;;;;;;1.65;1.33;;;;;;;29.01;nan;62906.88;5051685;28;20197;-64
2023/09/30 11:44:10;;;;;;;1.70;1.60;;;;;;;29.15;nan;62896.06;5051388;28;20212;-64
2023/09/30 11:46:54;;;;;;;2.85;1.58;;;;;;;29.13;nan;62841.13;5051627;28;20197;-65
2023/09/30 11:49:35;;;;;;;1.90;1.35;;;;;;;29.26;nan;62879.72;5051354;28;20204;-63
2023/09/30 11:52:03;;;;;;;1.38;1.27;;;;;;;29.31;nan;62907.13;5051774;28;20228;-64